sensor_id;sensor_type;location;lat;lon;timestamp;P1;durP1;ratioP1;P2;durP2;ratioP2
34505;SDS011;20748;42.632;23.198;2023-04-01T00:01:15;2.75;;;1.42;;
34505;SDS011;20748;42.632;23.198;2023-04-01T00:03:47;2.25;;;1.10;;
34505;SDS011;20748;42.632;23.198;2023-04-01T00:06:20;3.47;;;1.13;;
34505;SDS011;20748;42.632;23.198;2023-04-01T00:08:52;3.10;;;1.10;;
34505;SDS011;20748;42.632;23.198;2023-04-01T00:11:26;2.60;;;1.70;;
34505;SDS011;20748;42.632;23.198;2023-04-01T00:13:59;1.98;;;1.10;;
34505;SDS011;20748;42.632;23.198;2023-04-01T00:16:32;1.85;;;0.95;;
34505;SDS011;20748;42.632;23.198;2023-04-01T00:19:05;2.55;;;1.17;;
34505;SDS011;20748;42.632;23.198;2023-04-01T00:21:37;2.47;;;1.02;;
34505;SDS011;20748;42.632;23.198;2023-04-01T00:24:09;5.03;;;1.00;;
34505;SDS011;20748;42.632;23.198;2023-04-01T00:26:42;3.42;;;0.90;;
34505;SDS011;20748;42.632;23.198;2023-04-01T00:29:16;3.83;;;1.08;;
34505;SDS011;20748;42.632;23.198;2023-04-01T00:31:48;5.13;;;1.10;;
34505;SDS011;20748;42.632;23.198;2023-04-01T00:34:21;3.42;;;1.00;;
34505;SDS011;20748;42.632;23.198;2023-04-01T00:36:53;2.72;;;1.20;;
34505;SDS011;20748;42.632;23.198;2023-04-01T00:39:28;3.58;;;1.17;;
34505;SDS011;20748;42.632;23.198;2023-04-01T00:42:01;2.45;;;1.10;;
34505;SDS011;20748;42.632;23.198;2023-04-01T00:44:36;4.43;;;1.33;;
34505;SDS011;20748;42.632;23.198;2023-04-01T00:47:10;5.38;;;2.05;;
34505;SDS011;20748;42.632;23.198;2023-04-01T00:49:43;3.60;;;1.13;;
34505;SDS011;20748;42.632;23.198;2023-04-01T00:52:19;1.92;;;0.55;;
34505;SDS011;20748;42.632;23.198;2023-04-01T00:54:55;2.03;;;0.80;;
34505;SDS011;20748;42.632;23.198;2023-04-01T00:57:33;1.65;;;0.90;;
34505;SDS011;20748;42.632;23.198;2023-04-01T01:00:10;2.75;;;1.10;;
34505;SDS011;20748;42.632;23.198;2023-04-01T01:02:45;4.13;;;1.13;;
34505;SDS011;20748;42.632;23.198;2023-04-01T01:05:20;5.00;;;1.95;;
34505;SDS011;20748;42.632;23.198;2023-04-01T01:08:01;3.13;;;0.95;;
34505;SDS011;20748;42.632;23.198;2023-04-01T01:10:39;1.63;;;0.70;;
34505;SDS011;20748;42.632;23.198;2023-04-01T01:13:13;5.75;;;1.10;;
34505;SDS011;20748;42.632;23.198;2023-04-01T01:15:54;2.88;;;0.90;;
34505;SDS011;20748;42.632;23.198;2023-04-01T01:18:32;1.38;;;1.08;;
34505;SDS011;20748;42.632;23.198;2023-04-01T01:21:13;1.73;;;0.70;;
34505;SDS011;20748;42.632;23.198;2023-04-01T01:24:03;1.48;;;0.80;;
34505;SDS011;20748;42.632;23.198;2023-04-01T01:27:04;5.82;;;1.30;;
34505;SDS011;20748;42.632;23.198;2023-04-01T01:29:46;2.38;;;0.90;;
34505;SDS011;20748;42.632;23.198;2023-04-01T01:36:00;1.60;;;0.70;;
34505;SDS011;20748;42.632;23.198;2023-04-01T01:38:37;2.67;;;0.93;;
34505;SDS011;20748;42.632;23.198;2023-04-01T01:41:10;0.90;;;0.68;;
34505;SDS011;20748;42.632;23.198;2023-04-01T01:43:48;3.17;;;0.68;;
34505;SDS011;20748;42.632;23.198;2023-04-01T01:46:24;1.75;;;0.90;;
34505;SDS011;20748;42.632;23.198;2023-04-01T01:48:59;2.33;;;0.88;;
34505;SDS011;20748;42.632;23.198;2023-04-01T01:51:34;7.80;;;1.30;;
34505;SDS011;20748;42.632;23.198;2023-04-01T01:54:11;7.05;;;1.27;;
34505;SDS011;20748;42.632;23.198;2023-04-01T01:56:44;3.00;;;0.82;;
34505;SDS011;20748;42.632;23.198;2023-04-01T01:59:21;7.57;;;1.00;;
34505;SDS011;20748;42.632;23.198;2023-04-01T02:01:56;5.80;;;0.95;;
34505;SDS011;20748;42.632;23.198;2023-04-01T02:04:30;2.67;;;1.08;;
34505;SDS011;20748;42.632;23.198;2023-04-01T02:07:04;1.88;;;0.82;;
34505;SDS011;20748;42.632;23.198;2023-04-01T02:09:40;2.10;;;0.60;;
34505;SDS011;20748;42.632;23.198;2023-04-01T02:12:14;3.72;;;0.70;;
34505;SDS011;20748;42.632;23.198;2023-04-01T02:14:49;1.80;;;1.13;;
34505;SDS011;20748;42.632;23.198;2023-04-01T02:17:27;4.15;;;0.93;;
34505;SDS011;20748;42.632;23.198;2023-04-01T02:20:03;2.83;;;1.13;;
34505;SDS011;20748;42.632;23.198;2023-04-01T02:22:41;2.53;;;0.70;;
34505;SDS011;20748;42.632;23.198;2023-04-01T02:25:17;2.50;;;1.02;;
34505;SDS011;20748;42.632;23.198;2023-04-01T02:27:52;1.65;;;0.90;;
34505;SDS011;20748;42.632;23.198;2023-04-01T02:30:27;3.33;;;1.05;;
34505;SDS011;20748;42.632;23.198;2023-04-01T02:33:01;4.18;;;1.00;;
34505;SDS011;20748;42.632;23.198;2023-04-01T02:35:36;3.95;;;0.65;;
34505;SDS011;20748;42.632;23.198;2023-04-01T02:38:09;7.15;;;0.77;;
34505;SDS011;20748;42.632;23.198;2023-04-01T02:40:43;2.05;;;1.00;;
34505;SDS011;20748;42.632;23.198;2023-04-01T02:43:18;2.03;;;0.82;;
34505;SDS011;20748;42.632;23.198;2023-04-01T02:45:51;0.73;;;0.47;;
34505;SDS011;20748;42.632;23.198;2023-04-01T02:48:23;2.92;;;0.73;;
34505;SDS011;20748;42.632;23.198;2023-04-01T02:50:55;1.70;;;0.77;;
34505;SDS011;20748;42.632;23.198;2023-04-01T02:53:29;2.35;;;0.77;;
34505;SDS011;20748;42.632;23.198;2023-04-01T02:56:01;1.55;;;0.60;;
34505;SDS011;20748;42.632;23.198;2023-04-01T02:58:33;1.17;;;0.80;;
34505;SDS011;20748;42.632;23.198;2023-04-01T03:01:06;2.17;;;1.25;;
34505;SDS011;20748;42.632;23.198;2023-04-01T03:03:39;1.95;;;0.80;;
34505;SDS011;20748;42.632;23.198;2023-04-01T03:06:12;4.32;;;0.93;;
34505;SDS011;20748;42.632;23.198;2023-04-01T03:08:47;1.88;;;1.00;;
34505;SDS011;20748;42.632;23.198;2023-04-01T03:11:20;4.13;;;1.00;;
34505;SDS011;20748;42.632;23.198;2023-04-01T03:13:52;2.53;;;1.15;;
34505;SDS011;20748;42.632;23.198;2023-04-01T03:16:25;4.35;;;0.95;;
34505;SDS011;20748;42.632;23.198;2023-04-01T03:18:57;2.15;;;0.90;;
34505;SDS011;20748;42.632;23.198;2023-04-01T03:21:31;1.52;;;0.93;;
34505;SDS011;20748;42.632;23.198;2023-04-01T03:24:05;2.65;;;0.88;;
34505;SDS011;20748;42.632;23.198;2023-04-01T03:26:39;1.42;;;0.73;;
34505;SDS011;20748;42.632;23.198;2023-04-01T03:29:11;3.35;;;1.20;;
34505;SDS011;20748;42.632;23.198;2023-04-01T03:31:45;2.85;;;1.25;;
34505;SDS011;20748;42.632;23.198;2023-04-01T03:34:17;1.83;;;0.85;;
34505;SDS011;20748;42.632;23.198;2023-04-01T03:36:49;2.55;;;0.93;;
34505;SDS011;20748;42.632;23.198;2023-04-01T03:39:23;3.83;;;1.00;;
34505;SDS011;20748;42.632;23.198;2023-04-01T03:41:56;2.05;;;1.05;;
34505;SDS011;20748;42.632;23.198;2023-04-01T03:44:30;1.15;;;0.90;;
34505;SDS011;20748;42.632;23.198;2023-04-01T03:47:03;2.60;;;0.88;;
34505;SDS011;20748;42.632;23.198;2023-04-01T03:49:35;8.40;;;2.05;;
34505;SDS011;20748;42.632;23.198;2023-04-01T03:52:08;8.13;;;1.40;;
34505;SDS011;20748;42.632;23.198;2023-04-01T03:54:43;6.72;;;1.00;;
34505;SDS011;20748;42.632;23.198;2023-04-01T03:57:15;3.70;;;0.93;;
34505;SDS011;20748;42.632;23.198;2023-04-01T03:59:47;3.67;;;1.20;;
34505;SDS011;20748;42.632;23.198;2023-04-01T04:02:20;4.57;;;1.90;;
34505;SDS011;20748;42.632;23.198;2023-04-01T04:04:52;3.78;;;1.27;;
34505;SDS011;20748;42.632;23.198;2023-04-01T04:07:25;2.00;;;1.00;;
34505;SDS011;20748;42.632;23.198;2023-04-01T04:10:06;4.05;;;1.00;;
34505;SDS011;20748;42.632;23.198;2023-04-01T04:12:39;3.10;;;1.10;;
34505;SDS011;20748;42.632;23.198;2023-04-01T04:15:12;1.65;;;0.85;;
34505;SDS011;20748;42.632;23.198;2023-04-01T04:17:44;2.70;;;1.08;;
34505;SDS011;20748;42.632;23.198;2023-04-01T04:20:19;4.35;;;1.00;;
34505;SDS011;20748;42.632;23.198;2023-04-01T04:22:51;1.75;;;0.65;;
34505;SDS011;20748;42.632;23.198;2023-04-01T04:25:24;4.72;;;0.73;;
34505;SDS011;20748;42.632;23.198;2023-04-01T04:27:56;2.58;;;1.23;;
34505;SDS011;20748;42.632;23.198;2023-04-01T04:30:29;3.92;;;1.00;;
34505;SDS011;20748;42.632;23.198;2023-04-01T04:33:01;1.52;;;0.60;;
34505;SDS011;20748;42.632;23.198;2023-04-01T04:35:34;5.35;;;0.70;;
34505;SDS011;20748;42.632;23.198;2023-04-01T04:38:07;3.05;;;0.80;;
34505;SDS011;20748;42.632;23.198;2023-04-01T04:40:40;2.65;;;1.38;;
34505;SDS011;20748;42.632;23.198;2023-04-01T04:43:14;2.72;;;0.93;;
34505;SDS011;20748;42.632;23.198;2023-04-01T04:45:48;4.00;;;1.10;;
34505;SDS011;20748;42.632;23.198;2023-04-01T04:48:21;2.10;;;1.00;;
34505;SDS011;20748;42.632;23.198;2023-04-01T04:50:53;7.28;;;1.13;;
34505;SDS011;20748;42.632;23.198;2023-04-01T04:53:28;1.42;;;0.57;;
34505;SDS011;20748;42.632;23.198;2023-04-01T04:56:01;1.95;;;0.57;;
34505;SDS011;20748;42.632;23.198;2023-04-01T04:58:47;1.08;;;0.52;;
34505;SDS011;20748;42.632;23.198;2023-04-01T05:01:24;3.83;;;0.82;;
34505;SDS011;20748;42.632;23.198;2023-04-01T05:03:57;4.55;;;1.15;;
34505;SDS011;20748;42.632;23.198;2023-04-01T05:06:29;1.63;;;0.68;;
34505;SDS011;20748;42.632;23.198;2023-04-01T05:09:02;0.88;;;0.47;;
34505;SDS011;20748;42.632;23.198;2023-04-01T05:11:35;10.35;;;1.52;;
34505;SDS011;20748;42.632;23.198;2023-04-01T05:14:11;4.00;;;1.45;;
34505;SDS011;20748;42.632;23.198;2023-04-01T05:16:45;4.88;;;1.20;;
34505;SDS011;20748;42.632;23.198;2023-04-01T05:19:18;2.97;;;1.38;;
34505;SDS011;20748;42.632;23.198;2023-04-01T05:21:51;3.42;;;1.27;;
34505;SDS011;20748;42.632;23.198;2023-04-01T05:24:24;2.13;;;1.08;;
34505;SDS011;20748;42.632;23.198;2023-04-01T05:26:58;2.20;;;1.15;;
34505;SDS011;20748;42.632;23.198;2023-04-01T05:29:31;2.03;;;0.98;;
34505;SDS011;20748;42.632;23.198;2023-04-01T05:32:09;6.30;;;1.27;;
34505;SDS011;20748;42.632;23.198;2023-04-01T05:34:42;2.70;;;1.40;;
34505;SDS011;20748;42.632;23.198;2023-04-01T05:37:14;6.25;;;1.10;;
34505;SDS011;20748;42.632;23.198;2023-04-01T05:39:47;1.95;;;1.00;;
34505;SDS011;20748;42.632;23.198;2023-04-01T05:42:20;7.53;;;1.45;;
34505;SDS011;20748;42.632;23.198;2023-04-01T05:44:52;3.35;;;1.10;;
34505;SDS011;20748;42.632;23.198;2023-04-01T05:47:45;5.97;;;0.95;;
34505;SDS011;20748;42.632;23.198;2023-04-01T05:50:17;2.20;;;0.95;;
34505;SDS011;20748;42.632;23.198;2023-04-01T05:52:50;3.58;;;0.90;;
34505;SDS011;20748;42.632;23.198;2023-04-01T05:55:22;3.33;;;0.65;;
34505;SDS011;20748;42.632;23.198;2023-04-01T05:57:56;2.00;;;0.90;;
34505;SDS011;20748;42.632;23.198;2023-04-01T06:00:28;3.38;;;0.75;;
34505;SDS011;20748;42.632;23.198;2023-04-01T06:03:03;2.22;;;0.80;;
34505;SDS011;20748;42.632;23.198;2023-04-01T06:05:38;6.47;;;1.77;;
34505;SDS011;20748;42.632;23.198;2023-04-01T06:08:12;3.92;;;2.53;;
34505;SDS011;20748;42.632;23.198;2023-04-01T06:10:51;2.75;;;1.08;;
34505;SDS011;20748;42.632;23.198;2023-04-01T06:13:38;3.38;;;1.42;;
34505;SDS011;20748;42.632;23.198;2023-04-01T06:16:24;5.18;;;1.08;;
34505;SDS011;20748;42.632;23.198;2023-04-01T06:19:13;3.97;;;1.10;;
34505;SDS011;20748;42.632;23.198;2023-04-01T06:25:10;2.72;;;0.70;;
34505;SDS011;20748;42.632;23.198;2023-04-01T06:31:14;13.38;;;1.10;;
34505;SDS011;20748;42.632;23.198;2023-04-01T06:34:04;4.38;;;1.02;;
34505;SDS011;20748;42.632;23.198;2023-04-01T06:36:50;6.88;;;0.95;;
34505;SDS011;20748;42.632;23.198;2023-04-01T06:42:35;2.35;;;1.00;;
34505;SDS011;20748;42.632;23.198;2023-04-01T06:45:36;2.80;;;1.02;;
34505;SDS011;20748;42.632;23.198;2023-04-01T06:48:44;2.38;;;1.02;;
34505;SDS011;20748;42.632;23.198;2023-04-01T06:52:12;4.22;;;0.95;;
34505;SDS011;20748;42.632;23.198;2023-04-01T06:58:14;3.00;;;1.23;;
34505;SDS011;20748;42.632;23.198;2023-04-01T07:00:54;6.07;;;1.88;;
34505;SDS011;20748;42.632;23.198;2023-04-01T07:03:32;3.63;;;0.77;;
34505;SDS011;20748;42.632;23.198;2023-04-01T07:06:12;1.70;;;1.07;;
34505;SDS011;20748;42.632;23.198;2023-04-01T07:08:57;4.28;;;1.05;;
34505;SDS011;20748;42.632;23.198;2023-04-01T07:11:56;3.90;;;1.52;;
34505;SDS011;20748;42.632;23.198;2023-04-01T07:15:10;7.43;;;1.17;;
34505;SDS011;20748;42.632;23.198;2023-04-01T07:17:51;4.00;;;0.90;;
34505;SDS011;20748;42.632;23.198;2023-04-01T07:20:27;5.47;;;1.13;;
34505;SDS011;20748;42.632;23.198;2023-04-01T07:23:05;1.70;;;0.60;;
34505;SDS011;20748;42.632;23.198;2023-04-01T07:25:58;3.67;;;1.13;;
34505;SDS011;20748;42.632;23.198;2023-04-01T07:28:32;7.38;;;1.02;;
34505;SDS011;20748;42.632;23.198;2023-04-01T07:31:19;1.92;;;1.05;;
34505;SDS011;20748;42.632;23.198;2023-04-01T07:34:03;4.85;;;1.33;;
34505;SDS011;20748;42.632;23.198;2023-04-01T07:36:45;2.58;;;1.27;;
34505;SDS011;20748;42.632;23.198;2023-04-01T07:39:25;6.15;;;1.30;;
34505;SDS011;20748;42.632;23.198;2023-04-01T07:42:15;3.42;;;0.85;;
34505;SDS011;20748;42.632;23.198;2023-04-01T07:44:59;1.75;;;0.68;;
34505;SDS011;20748;42.632;23.198;2023-04-01T07:47:43;3.50;;;1.33;;
34505;SDS011;20748;42.632;23.198;2023-04-01T07:50:29;5.45;;;1.15;;
34505;SDS011;20748;42.632;23.198;2023-04-01T07:53:07;3.95;;;1.08;;
34505;SDS011;20748;42.632;23.198;2023-04-01T07:55:51;7.32;;;1.77;;
34505;SDS011;20748;42.632;23.198;2023-04-01T07:58:31;2.10;;;1.05;;
34505;SDS011;20748;42.632;23.198;2023-04-01T08:01:16;4.78;;;1.02;;
34505;SDS011;20748;42.632;23.198;2023-04-01T08:04:05;5.75;;;1.15;;
34505;SDS011;20748;42.632;23.198;2023-04-01T08:06:51;6.35;;;1.20;;
34505;SDS011;20748;42.632;23.198;2023-04-01T08:09:29;4.53;;;1.58;;
34505;SDS011;20748;42.632;23.198;2023-04-01T08:12:29;1.95;;;1.27;;
34505;SDS011;20748;42.632;23.198;2023-04-01T08:15:31;4.80;;;1.10;;
34505;SDS011;20748;42.632;23.198;2023-04-01T08:18:22;1.13;;;0.68;;
34505;SDS011;20748;42.632;23.198;2023-04-01T08:21:05;2.72;;;0.77;;
34505;SDS011;20748;42.632;23.198;2023-04-01T08:23:43;3.97;;;1.10;;
34505;SDS011;20748;42.632;23.198;2023-04-01T08:26:21;3.47;;;1.42;;
34505;SDS011;20748;42.632;23.198;2023-04-01T08:29:03;5.97;;;1.52;;
34505;SDS011;20748;42.632;23.198;2023-04-01T08:31:43;2.45;;;1.02;;
34505;SDS011;20748;42.632;23.198;2023-04-01T08:34:23;3.33;;;1.52;;
34505;SDS011;20748;42.632;23.198;2023-04-01T08:37:15;1.83;;;0.50;;
34505;SDS011;20748;42.632;23.198;2023-04-01T08:39:54;3.40;;;1.42;;
34505;SDS011;20748;42.632;23.198;2023-04-01T08:42:49;3.45;;;1.60;;
34505;SDS011;20748;42.632;23.198;2023-04-01T08:45:43;4.40;;;0.93;;
34505;SDS011;20748;42.632;23.198;2023-04-01T08:48:28;3.65;;;1.42;;
34505;SDS011;20748;42.632;23.198;2023-04-01T08:54:35;2.60;;;0.98;;
34505;SDS011;20748;42.632;23.198;2023-04-01T08:57:24;5.20;;;1.15;;
34505;SDS011;20748;42.632;23.198;2023-04-01T09:00:37;2.70;;;0.77;;
34505;SDS011;20748;42.632;23.198;2023-04-01T09:03:40;1.48;;;0.60;;
34505;SDS011;20748;42.632;23.198;2023-04-01T09:06:34;5.30;;;1.00;;
34505;SDS011;20748;42.632;23.198;2023-04-01T09:09:32;6.70;;;1.00;;
34505;SDS011;20748;42.632;23.198;2023-04-01T09:12:35;5.88;;;1.08;;
34505;SDS011;20748;42.632;23.198;2023-04-01T09:15:37;2.85;;;0.90;;
34505;SDS011;20748;42.632;23.198;2023-04-01T09:18:32;3.70;;;1.05;;
34505;SDS011;20748;42.632;23.198;2023-04-01T09:24:20;3.10;;;0.98;;
34505;SDS011;20748;42.632;23.198;2023-04-01T09:27:11;4.30;;;0.95;;
34505;SDS011;20748;42.632;23.198;2023-04-01T09:29:58;1.88;;;1.17;;
34505;SDS011;20748;42.632;23.198;2023-04-01T09:36:02;4.38;;;1.00;;
34505;SDS011;20748;42.632;23.198;2023-04-01T09:38:42;2.42;;;0.93;;
34505;SDS011;20748;42.632;23.198;2023-04-01T09:41:30;2.50;;;0.90;;
34505;SDS011;20748;42.632;23.198;2023-04-01T09:44:21;3.65;;;1.10;;
34505;SDS011;20748;42.632;23.198;2023-04-01T09:47:15;4.05;;;1.13;;
34505;SDS011;20748;42.632;23.198;2023-04-01T09:55:57;4.00;;;1.50;;
34505;SDS011;20748;42.632;23.198;2023-04-01T09:58:57;3.35;;;1.63;;
34505;SDS011;20748;42.632;23.198;2023-04-01T10:02:08;4.13;;;1.17;;
34505;SDS011;20748;42.632;23.198;2023-04-01T10:18:03;1.20;;;1.00;;
34505;SDS011;20748;42.632;23.198;2023-04-01T10:21:07;3.30;;;1.20;;
34505;SDS011;20748;42.632;23.198;2023-04-01T10:24:11;3.83;;;1.00;;
34505;SDS011;20748;42.632;23.198;2023-04-01T10:36:50;2.17;;;1.02;;
34505;SDS011;20748;42.632;23.198;2023-04-01T10:43:34;2.85;;;0.85;;
34505;SDS011;20748;42.632;23.198;2023-04-01T10:46:39;4.20;;;1.30;;
34505;SDS011;20748;42.632;23.198;2023-04-01T10:49:45;2.55;;;0.73;;
34505;SDS011;20748;42.632;23.198;2023-04-01T10:52:54;6.18;;;2.10;;
34505;SDS011;20748;42.632;23.198;2023-04-01T11:03:06;2.53;;;1.15;;
34505;SDS011;20748;42.632;23.198;2023-04-01T11:19:32;2.20;;;1.35;;
34505;SDS011;20748;42.632;23.198;2023-04-01T11:22:29;2.15;;;0.93;;
34505;SDS011;20748;42.632;23.198;2023-04-01T11:32:37;6.90;;;0.75;;
34505;SDS011;20748;42.632;23.198;2023-04-01T11:35:24;5.80;;;1.95;;
34505;SDS011;20748;42.632;23.198;2023-04-01T11:38:07;4.30;;;1.58;;
34505;SDS011;20748;42.632;23.198;2023-04-01T11:40:51;3.67;;;1.80;;
34505;SDS011;20748;42.632;23.198;2023-04-01T11:44:03;8.38;;;2.42;;
34505;SDS011;20748;42.632;23.198;2023-04-01T11:47:05;3.88;;;2.08;;
34505;SDS011;20748;42.632;23.198;2023-04-01T11:49:55;6.78;;;2.75;;
34505;SDS011;20748;42.632;23.198;2023-04-01T11:52:56;2.97;;;1.40;;
34505;SDS011;20748;42.632;23.198;2023-04-01T11:55:43;6.07;;;2.20;;
34505;SDS011;20748;42.632;23.198;2023-04-01T11:58:40;3.97;;;1.75;;
34505;SDS011;20748;42.632;23.198;2023-04-01T12:01:36;5.82;;;2.30;;
34505;SDS011;20748;42.632;23.198;2023-04-01T12:07:40;11.40;;;3.25;;
34505;SDS011;20748;42.632;23.198;2023-04-01T12:10:26;7.28;;;3.65;;
34505;SDS011;20748;42.632;23.198;2023-04-01T12:13:07;4.35;;;2.75;;
34505;SDS011;20748;42.632;23.198;2023-04-01T12:15:56;8.00;;;4.00;;
34505;SDS011;20748;42.632;23.198;2023-04-01T12:18:40;10.68;;;3.83;;
34505;SDS011;20748;42.632;23.198;2023-04-01T12:27:29;5.28;;;2.42;;
34505;SDS011;20748;42.632;23.198;2023-04-01T12:33:35;5.97;;;3.03;;
34505;SDS011;20748;42.632;23.198;2023-04-01T12:36:33;3.40;;;2.25;;
34505;SDS011;20748;42.632;23.198;2023-04-01T12:42:18;3.47;;;1.85;;
34505;SDS011;20748;42.632;23.198;2023-04-01T12:45:13;7.97;;;2.45;;
34505;SDS011;20748;42.632;23.198;2023-04-01T12:51:18;7.72;;;2.75;;
34505;SDS011;20748;42.632;23.198;2023-04-01T12:54:42;7.05;;;3.50;;
34505;SDS011;20748;42.632;23.198;2023-04-01T12:57:47;8.02;;;2.90;;
34505;SDS011;20748;42.632;23.198;2023-04-01T13:00:56;4.35;;;2.30;;
34505;SDS011;20748;42.632;23.198;2023-04-01T13:03:54;4.82;;;1.98;;
34505;SDS011;20748;42.632;23.198;2023-04-01T13:06:47;3.72;;;2.10;;
34505;SDS011;20748;42.632;23.198;2023-04-01T13:09:32;2.13;;;1.65;;
34505;SDS011;20748;42.632;23.198;2023-04-01T13:12:20;9.05;;;4.68;;
34505;SDS011;20748;42.632;23.198;2023-04-01T13:15:23;3.92;;;1.90;;
34505;SDS011;20748;42.632;23.198;2023-04-01T13:18:03;10.02;;;2.75;;
34505;SDS011;20748;42.632;23.198;2023-04-01T13:20:52;2.60;;;1.48;;
34505;SDS011;20748;42.632;23.198;2023-04-01T13:23:33;4.07;;;1.35;;
34505;SDS011;20748;42.632;23.198;2023-04-01T13:26:18;3.42;;;1.42;;
34505;SDS011;20748;42.632;23.198;2023-04-01T13:28:57;1.83;;;1.05;;
34505;SDS011;20748;42.632;23.198;2023-04-01T13:31:38;2.95;;;1.52;;
34505;SDS011;20748;42.632;23.198;2023-04-01T13:34:26;4.05;;;1.08;;
34505;SDS011;20748;42.632;23.198;2023-04-01T13:37:12;8.57;;;1.52;;
34505;SDS011;20748;42.632;23.198;2023-04-01T13:39:57;1.80;;;1.08;;
34505;SDS011;20748;42.632;23.198;2023-04-01T13:42:43;1.48;;;1.20;;
34505;SDS011;20748;42.632;23.198;2023-04-01T13:45:21;2.05;;;0.93;;
34505;SDS011;20748;42.632;23.198;2023-04-01T13:48:03;1.95;;;1.38;;
34505;SDS011;20748;42.632;23.198;2023-04-01T13:51:11;3.13;;;1.43;;
34505;SDS011;20748;42.632;23.198;2023-04-01T13:53:56;9.48;;;2.63;;
34505;SDS011;20748;42.632;23.198;2023-04-01T13:56:41;12.93;;;4.80;;
34505;SDS011;20748;42.632;23.198;2023-04-01T13:59:40;1.40;;;1.00;;
34505;SDS011;20748;42.632;23.198;2023-04-01T14:05:51;0.75;;;0.70;;
34505;SDS011;20748;42.632;23.198;2023-04-01T14:08:36;4.45;;;1.20;;
34505;SDS011;20748;42.632;23.198;2023-04-01T14:11:30;4.85;;;1.50;;
34505;SDS011;20748;42.632;23.198;2023-04-01T14:14:13;1.98;;;1.02;;
34505;SDS011;20748;42.632;23.198;2023-04-01T14:16:57;3.22;;;1.30;;
34505;SDS011;20748;42.632;23.198;2023-04-01T14:19:59;2.22;;;0.88;;
34505;SDS011;20748;42.632;23.198;2023-04-01T14:22:51;2.15;;;0.98;;
34505;SDS011;20748;42.632;23.198;2023-04-01T14:26:00;2.88;;;1.77;;
34505;SDS011;20748;42.632;23.198;2023-04-01T14:29:01;2.65;;;1.08;;
34505;SDS011;20748;42.632;23.198;2023-04-01T14:31:47;1.15;;;0.70;;
34505;SDS011;20748;42.632;23.198;2023-04-01T14:34:33;1.60;;;1.05;;
34505;SDS011;20748;42.632;23.198;2023-04-01T14:40:18;6.80;;;2.38;;
34505;SDS011;20748;42.632;23.198;2023-04-01T14:43:15;3.22;;;1.63;;
34505;SDS011;20748;42.632;23.198;2023-04-01T14:46:04;3.40;;;1.30;;
34505;SDS011;20748;42.632;23.198;2023-04-01T14:48:50;3.28;;;1.48;;
34505;SDS011;20748;42.632;23.198;2023-04-01T14:51:28;3.40;;;0.73;;
34505;SDS011;20748;42.632;23.198;2023-04-01T14:54:05;2.60;;;1.30;;
34505;SDS011;20748;42.632;23.198;2023-04-01T14:56:44;3.38;;;1.67;;
34505;SDS011;20748;42.632;23.198;2023-04-01T14:59:26;2.10;;;1.17;;
34505;SDS011;20748;42.632;23.198;2023-04-01T15:02:01;3.03;;;1.33;;
34505;SDS011;20748;42.632;23.198;2023-04-01T15:04:46;3.78;;;1.63;;
34505;SDS011;20748;42.632;23.198;2023-04-01T15:07:34;3.95;;;1.80;;
34505;SDS011;20748;42.632;23.198;2023-04-01T15:13:24;3.83;;;1.17;;
34505;SDS011;20748;42.632;23.198;2023-04-01T15:16:11;2.33;;;0.90;;
34505;SDS011;20748;42.632;23.198;2023-04-01T15:18:53;4.18;;;2.63;;
34505;SDS011;20748;42.632;23.198;2023-04-01T15:21:43;4.45;;;1.05;;
34505;SDS011;20748;42.632;23.198;2023-04-01T15:24:22;1.20;;;0.90;;
34505;SDS011;20748;42.632;23.198;2023-04-01T15:29:56;2.97;;;1.40;;
34505;SDS011;20748;42.632;23.198;2023-04-01T15:32:51;2.42;;;0.95;;
34505;SDS011;20748;42.632;23.198;2023-04-01T15:35:43;3.90;;;1.85;;
34505;SDS011;20748;42.632;23.198;2023-04-01T15:38:28;2.88;;;1.00;;
34505;SDS011;20748;42.632;23.198;2023-04-01T15:41:13;3.88;;;1.75;;
34505;SDS011;20748;42.632;23.198;2023-04-01T15:43:47;1.77;;;1.30;;
34505;SDS011;20748;42.632;23.198;2023-04-01T15:46:36;3.63;;;1.30;;
34505;SDS011;20748;42.632;23.198;2023-04-01T15:49:17;1.95;;;1.27;;
34505;SDS011;20748;42.632;23.198;2023-04-01T15:52:05;2.88;;;1.65;;
34505;SDS011;20748;42.632;23.198;2023-04-01T15:54:48;4.07;;;1.70;;
34505;SDS011;20748;42.632;23.198;2023-04-01T15:57:35;1.58;;;0.30;;
34505;SDS011;20748;42.632;23.198;2023-04-01T16:00:24;0.73;;;0.45;;
34505;SDS011;20748;42.632;23.198;2023-04-01T16:06:11;0.30;;;0.20;;
34505;SDS011;20748;42.632;23.198;2023-04-01T16:09:01;0.22;;;0.22;;
34505;SDS011;20748;42.632;23.198;2023-04-01T16:11:43;3.15;;;0.70;;
34505;SDS011;20748;42.632;23.198;2023-04-01T16:14:25;0.32;;;0.22;;
34505;SDS011;20748;42.632;23.198;2023-04-01T16:17:05;1.55;;;0.30;;
34505;SDS011;20748;42.632;23.198;2023-04-01T16:19:55;1.85;;;0.60;;
34505;SDS011;20748;42.632;23.198;2023-04-01T16:22:32;0.93;;;0.60;;
34505;SDS011;20748;42.632;23.198;2023-04-01T16:25:17;7.63;;;3.63;;
34505;SDS011;20748;42.632;23.198;2023-04-01T16:27:53;1.08;;;0.40;;
34505;SDS011;20748;42.632;23.198;2023-04-01T16:30:35;1.42;;;0.57;;
34505;SDS011;20748;42.632;23.198;2023-04-01T16:33:11;0.73;;;0.50;;
34505;SDS011;20748;42.632;23.198;2023-04-01T16:35:54;2.13;;;1.30;;
34505;SDS011;20748;42.632;23.198;2023-04-01T16:38:32;5.63;;;3.23;;
34505;SDS011;20748;42.632;23.198;2023-04-01T16:41:14;4.63;;;2.42;;
34505;SDS011;20748;42.632;23.198;2023-04-01T16:43:50;1.83;;;0.73;;
34505;SDS011;20748;42.632;23.198;2023-04-01T16:46:33;2.28;;;1.13;;
34505;SDS011;20748;42.632;23.198;2023-04-01T16:49:17;4.00;;;1.60;;
34505;SDS011;20748;42.632;23.198;2023-04-01T16:52:12;7.03;;;3.30;;
34505;SDS011;20748;42.632;23.198;2023-04-01T16:54:47;2.55;;;1.15;;
34505;SDS011;20748;42.632;23.198;2023-04-01T16:57:30;2.60;;;1.58;;
34505;SDS011;20748;42.632;23.198;2023-04-01T17:00:15;8.75;;;4.20;;
34505;SDS011;20748;42.632;23.198;2023-04-01T17:02:57;3.85;;;2.38;;
34505;SDS011;20748;42.632;23.198;2023-04-01T17:05:38;6.38;;;2.40;;
34505;SDS011;20748;42.632;23.198;2023-04-01T17:08:22;6.05;;;2.25;;
34505;SDS011;20748;42.632;23.198;2023-04-01T17:11:03;8.07;;;3.97;;
34505;SDS011;20748;42.632;23.198;2023-04-01T17:13:46;4.97;;;2.55;;
34505;SDS011;20748;42.632;23.198;2023-04-01T17:16:26;4.30;;;1.88;;
34505;SDS011;20748;42.632;23.198;2023-04-01T17:19:11;6.20;;;3.08;;
34505;SDS011;20748;42.632;23.198;2023-04-01T17:21:57;7.35;;;3.47;;
34505;SDS011;20748;42.632;23.198;2023-04-01T17:24:44;5.43;;;2.63;;
34505;SDS011;20748;42.632;23.198;2023-04-01T17:27:33;6.05;;;3.05;;
34505;SDS011;20748;42.632;23.198;2023-04-01T17:33:13;4.60;;;2.13;;
34505;SDS011;20748;42.632;23.198;2023-04-01T17:36:07;7.60;;;2.47;;
34505;SDS011;20748;42.632;23.198;2023-04-01T17:39:00;8.30;;;3.90;;
34505;SDS011;20748;42.632;23.198;2023-04-01T17:41:51;6.45;;;3.33;;
34505;SDS011;20748;42.632;23.198;2023-04-01T17:44:32;12.70;;;6.07;;
34505;SDS011;20748;42.632;23.198;2023-04-01T17:47:25;8.85;;;4.35;;
34505;SDS011;20748;42.632;23.198;2023-04-01T17:50:21;5.88;;;2.97;;
34505;SDS011;20748;42.632;23.198;2023-04-01T17:52:59;6.57;;;3.70;;
34505;SDS011;20748;42.632;23.198;2023-04-01T17:55:49;7.85;;;3.08;;
34505;SDS011;20748;42.632;23.198;2023-04-01T17:58:34;7.20;;;3.17;;
34505;SDS011;20748;42.632;23.198;2023-04-01T18:01:17;9.20;;;4.07;;
34505;SDS011;20748;42.632;23.198;2023-04-01T18:04:02;5.43;;;2.10;;
34505;SDS011;20748;42.632;23.198;2023-04-01T18:06:47;6.28;;;2.40;;
34505;SDS011;20748;42.632;23.198;2023-04-01T18:09:48;9.98;;;3.45;;